createdAt,value
2023-02-06T00:00:50.689Z,0.07
2023-02-06T00:03:18.238Z,0.08
2023-02-06T00:05:54.184Z,0.07
2023-02-06T00:08:21.455Z,0.07
2023-02-06T00:10:48.334Z,0.09
2023-02-06T00:13:16.492Z,0.09
2023-02-06T00:15:43.341Z,0.10
2023-02-06T00:18:10.104Z,0.14
2023-02-06T00:20:37.739Z,0.07
2023-02-06T00:23:05.012Z,0.09
2023-02-06T00:25:31.828Z,0.09
2023-02-06T00:27:58.585Z,0.09
2023-02-06T00:30:26.742Z,0.09
2023-02-06T00:32:53.548Z,0.10
2023-02-06T00:35:20.648Z,0.05
2023-02-06T00:37:47.385Z,0.03
2023-02-06T00:40:14.143Z,0.12
2023-02-06T00:42:40.867Z,0.08
2023-02-06T00:45:09.494Z,0.09
2023-02-06T00:47:37.630Z,0.05
2023-02-06T00:50:05.289Z,0.07
2023-02-06T00:52:32.060Z,0.18
2023-02-06T00:54:58.792Z,0.14
2023-02-06T00:57:25.612Z,0.12
2023-02-06T00:59:52.408Z,0.16
2023-02-06T01:02:19.135Z,0.13
2023-02-06T01:04:48.605Z,0.12
2023-02-06T01:07:15.405Z,0.11
2023-02-06T01:09:42.190Z,0.25
2023-02-06T01:12:08.987Z,1.08
2023-02-06T01:14:35.732Z,0.68
2023-02-06T01:17:02.504Z,0.41
2023-02-06T01:19:29.307Z,0.27
2023-02-06T01:21:57.771Z,0.19
2023-02-06T01:24:24.561Z,0.15
2023-02-06T01:26:51.342Z,0.28
2023-02-06T01:29:18.083Z,0.18
2023-02-06T01:31:44.892Z,0.20
2023-02-06T01:34:11.610Z,0.15
2023-02-06T01:36:38.522Z,0.13
2023-02-06T01:39:07.008Z,0.18
2023-02-06T01:41:33.965Z,0.19
2023-02-06T01:44:12.653Z,0.18
2023-02-06T01:46:41.197Z,0.14
2023-02-06T01:51:39.084Z,0.11
2023-02-06T01:54:08.589Z,0.18
2023-02-06T01:56:39.941Z,0.23
2023-02-06T01:59:06.844Z,0.49
2023-02-06T02:01:34.013Z,0.31
2023-02-06T02:04:05.683Z,0.19
2023-02-06T02:06:33.431Z,0.32
2023-02-06T02:09:01.954Z,0.22
2023-02-06T02:11:32.514Z,0.16
2023-02-06T02:14:00.567Z,0.18
2023-02-06T02:16:38.390Z,0.16
2023-02-06T02:19:47.475Z,0.13
2023-02-06T02:22:58.158Z,0.12
2023-02-06T02:25:58.679Z,0.11
2023-02-06T02:29:09.635Z,0.10
2023-02-06T02:32:11.422Z,0.10
2023-02-06T02:35:10.759Z,0.42
2023-02-06T02:37:49.426Z,0.27
2023-02-06T02:40:25.174Z,0.19
2023-02-06T02:43:01.587Z,0.15
2023-02-06T02:45:33.894Z,0.17
2023-02-06T02:48:06.901Z,0.14
2023-02-06T02:50:37.298Z,0.14
2023-02-06T02:53:04.287Z,0.12
2023-02-06T02:55:31.083Z,0.19
2023-02-06T02:58:03.618Z,0.34
2023-02-06T03:00:33.267Z,0.23
2023-02-06T03:03:00.104Z,0.12
2023-02-06T03:05:27.787Z,0.11
2023-02-06T03:08:10.893Z,0.11
2023-02-06T03:10:45.661Z,0.14
2023-02-06T03:13:17.592Z,0.15
2023-02-06T03:15:49.489Z,0.16
2023-02-06T03:18:19.818Z,0.43
2023-02-06T03:20:48.304Z,0.32
2023-02-06T03:23:20.171Z,0.26
2023-02-06T03:25:50.809Z,0.14
2023-02-06T03:28:22.553Z,0.12
2023-02-06T03:30:52.350Z,0.11
2023-02-06T03:33:22.860Z,0.11
2023-02-06T03:35:49.772Z,0.06
2023-02-06T03:38:18.284Z,0.03
2023-02-06T03:40:48.852Z,0.02
2023-02-06T03:43:17.896Z,0.06
2023-02-06T03:45:48.790Z,0.12
2023-02-06T03:48:21.546Z,0.30
2023-02-06T03:50:51.631Z,0.34
2023-02-06T03:53:22.847Z,0.49
2023-02-06T03:55:52.312Z,0.45
2023-02-06T03:58:19.131Z,0.33
2023-02-06T04:00:48.064Z,0.22
2023-02-06T04:03:15.419Z,0.15
2023-02-06T04:05:42.276Z,0.08
2023-02-06T04:08:09.985Z,0.14
2023-02-06T04:10:38.100Z,0.14
2023-02-06T04:13:04.929Z,0.12
2023-02-06T04:15:31.639Z,0.11
2023-02-06T04:18:01.105Z,0.09
2023-02-06T04:20:28.992Z,0.10
2023-02-06T04:22:55.906Z,0.28
2023-02-06T04:25:22.711Z,0.20
2023-02-06T04:27:51.258Z,0.15
2023-02-06T04:30:18.432Z,0.13
2023-02-06T04:32:45.384Z,0.21
2023-02-06T04:35:12.372Z,0.16
2023-02-06T04:37:39.187Z,0.13
2023-02-06T04:40:07.083Z,0.12
2023-02-06T04:42:33.839Z,0.12
2023-02-06T04:45:01.981Z,0.11
2023-02-06T04:47:28.707Z,0.07
2023-02-06T04:49:55.514Z,0.08
2023-02-06T04:52:22.241Z,0.09
2023-02-06T04:54:48.974Z,0.09
2023-02-06T04:57:15.724Z,0.10
2023-02-06T04:59:42.474Z,0.09
2023-02-06T05:02:10.565Z,0.10
2023-02-06T05:04:38.388Z,0.05
2023-02-06T05:07:05.676Z,0.07
2023-02-06T05:09:32.526Z,0.09
2023-02-06T05:11:59.445Z,0.19
2023-02-06T05:14:26.514Z,0.15
2023-02-06T05:16:53.234Z,0.08
2023-02-06T05:19:21.509Z,0.09
2023-02-06T05:21:48.224Z,0.05
2023-02-06T05:24:14.940Z,0.05
2023-02-06T05:26:41.831Z,0.07
2023-02-06T05:29:08.712Z,0.04
2023-02-06T05:31:35.740Z,0.06
2023-02-06T05:34:02.612Z,0.07
2023-02-06T05:36:30.783Z,0.06
2023-02-06T05:38:57.634Z,0.03
2023-02-06T05:41:24.491Z,0.02
2023-02-06T05:43:51.237Z,0.06
2023-02-06T05:46:18.076Z,0.08
2023-02-06T05:48:44.919Z,0.04
2023-02-06T05:51:11.839Z,0.09
2023-02-06T05:53:40.099Z,0.17
2023-02-06T05:56:07.189Z,0.13
2023-02-06T05:58:34.266Z,0.12
2023-02-06T06:01:01.100Z,0.11
2023-02-06T06:03:27.932Z,0.10
2023-02-06T06:05:54.891Z,0.15
2023-02-06T06:08:22.553Z,0.13
2023-02-06T06:10:52.016Z,0.20
2023-02-06T06:13:19.207Z,0.15
2023-02-06T06:15:46.110Z,0.27
2023-02-06T06:18:12.927Z,0.34
2023-02-06T06:20:39.695Z,0.23
2023-02-06T06:23:06.616Z,0.22
2023-02-06T06:25:35.268Z,0.16
2023-02-06T06:28:06.197Z,0.18
2023-02-06T06:30:35.425Z,0.19
2023-02-06T06:33:02.500Z,0.17
2023-02-06T06:35:29.508Z,0.17
2023-02-06T06:37:56.253Z,0.16
2023-02-06T06:40:23.220Z,0.33
2023-02-06T06:42:50.112Z,0.22
2023-02-06T06:45:18.378Z,0.19
2023-02-06T06:47:45.291Z,0.21
2023-02-06T06:50:12.057Z,0.18
2023-02-06T06:52:38.894Z,0.29
2023-02-06T06:55:06.383Z,0.32
2023-02-06T06:57:34.357Z,0.22
2023-02-06T07:00:01.100Z,0.21
2023-02-06T07:02:29.274Z,0.26
2023-02-06T07:04:56.084Z,0.18
2023-02-06T07:07:22.961Z,0.19
2023-02-06T07:09:49.792Z,0.42
2023-02-06T07:12:16.632Z,0.32
2023-02-06T07:14:43.344Z,0.63
2023-02-06T07:17:11.395Z,0.48
2023-02-06T07:19:39.639Z,0.92
2023-02-06T07:22:06.527Z,1.15
2023-02-06T07:24:33.319Z,0.90
2023-02-06T07:27:00.079Z,4.62
2023-02-06T07:29:26.874Z,9.84
2023-02-06T07:31:53.693Z,13.64
2023-02-06T07:34:20.538Z,13.35
2023-02-06T07:36:48.657Z,10.87
2023-02-06T07:39:15.412Z,9.33
2023-02-06T07:41:42.189Z,7.11
2023-02-06T07:44:10.422Z,4.73
2023-02-06T07:46:37.397Z,3.67
2023-02-06T07:49:04.205Z,2.96
2023-02-06T07:51:31.429Z,1.88
2023-02-06T07:53:59.824Z,1.56
2023-02-06T07:56:26.691Z,1.09
2023-02-06T07:58:54.726Z,0.81
2023-02-06T08:01:22.493Z,0.52
2023-02-06T08:03:49.788Z,0.52
2023-02-06T08:06:17.432Z,0.60
2023-02-06T08:08:45.131Z,0.51
2023-02-06T08:11:18.198Z,0.37
2023-02-06T08:13:46.147Z,0.33
2023-02-06T08:16:16.240Z,0.29
2023-02-06T08:18:43.391Z,0.42
2023-02-06T08:21:12.826Z,0.36
2023-02-06T08:23:39.756Z,0.39
2023-02-06T08:26:08.963Z,0.30
2023-02-06T08:28:37.824Z,0.77
2023-02-06T08:31:09.892Z,0.57
2023-02-06T08:33:36.784Z,0.55
2023-02-06T08:36:04.628Z,0.72
2023-02-06T08:38:31.333Z,0.47
2023-02-06T08:40:58.112Z,0.40
2023-02-06T08:43:24.900Z,0.41
2023-02-06T08:45:54.317Z,0.31
2023-02-06T08:48:21.045Z,0.26
2023-02-06T08:50:47.886Z,0.35
2023-02-06T08:53:14.611Z,0.30
2023-02-06T08:55:41.754Z,0.25
2023-02-06T08:58:08.887Z,0.37
2023-02-06T09:00:35.634Z,0.34
2023-02-06T09:03:04.700Z,0.37
2023-02-06T09:05:31.836Z,0.29
2023-02-06T09:07:58.591Z,0.29
2023-02-06T09:10:27.795Z,0.35
2023-02-06T09:12:57.301Z,0.43
2023-02-06T09:15:24.178Z,0.42
2023-02-06T09:17:51.077Z,0.41
2023-02-06T09:20:19.473Z,0.41
2023-02-06T09:22:46.351Z,0.40
2023-02-06T09:25:13.107Z,0.47
2023-02-06T09:27:39.922Z,0.59
2023-02-06T09:30:07.587Z,0.59
2023-02-06T09:32:34.307Z,0.51
2023-02-06T09:35:01.125Z,0.41
2023-02-06T09:37:29.698Z,0.66
2023-02-06T09:39:57.938Z,0.89
2023-02-06T09:42:31.837Z,1.02
2023-02-06T09:45:05.820Z,0.96
2023-02-06T09:50:02.924Z,0.99
2023-02-06T09:52:42.601Z,0.90
2023-02-06T09:55:16.356Z,0.76
2023-02-06T09:57:49.731Z,0.75
2023-02-06T10:00:31.361Z,0.54
2023-02-06T10:03:16.653Z,0.58
2023-02-06T10:05:49.789Z,0.79
2023-02-06T10:08:22.828Z,0.67
2023-02-06T10:10:53.335Z,0.60
2023-02-06T10:13:25.427Z,0.79
2023-02-06T10:15:56.124Z,0.88
2023-02-06T10:18:28.334Z,0.82
2023-02-06T10:21:00.777Z,0.67
2023-02-06T10:23:36.194Z,0.68
2023-02-06T10:26:07.604Z,0.67
2023-02-06T10:28:34.632Z,0.58
2023-02-06T10:31:13.237Z,0.65
2023-02-06T10:33:50.051Z,0.60
2023-02-06T10:36:34.206Z,0.76
2023-02-06T10:39:29.549Z,0.83
2023-02-06T10:42:05.381Z,0.73
2023-02-06T10:44:37.463Z,1.33
2023-02-06T10:47:22.820Z,1.07
2023-02-06T10:49:56.951Z,0.79
2023-02-06T10:52:27.341Z,0.82
2023-02-06T10:54:58.982Z,0.66
2023-02-06T10:57:28.125Z,0.61
2023-02-06T10:59:59.805Z,0.56
2023-02-06T11:02:32.882Z,1.15
2023-02-06T11:05:07.052Z,0.80
2023-02-06T11:10:05.837Z,0.81
2023-02-06T11:12:36.426Z,0.98
2023-02-06T11:15:09.052Z,1.01
2023-02-06T11:17:36.076Z,1.25
2023-02-06T11:20:17.048Z,1.05
2023-02-06T11:22:52.413Z,0.89
2023-02-06T11:25:27.211Z,1.08
2023-02-06T11:27:54.969Z,1.05
2023-02-06T11:30:29.592Z,0.89
2023-02-06T11:33:04.576Z,1.06
2023-02-06T11:35:35.291Z,0.97
2023-02-06T11:38:13.709Z,0.84
2023-02-06T11:40:42.368Z,1.16
2023-02-06T11:43:19.307Z,1.07
2023-02-06T11:45:47.116Z,0.96
2023-02-06T11:48:33.784Z,1.60
2023-02-06T11:51:01.026Z,1.55
2023-02-06T11:53:28.003Z,1.31
2023-02-06T11:56:02.671Z,1.26
2023-02-06T11:58:30.476Z,0.95
2023-02-06T12:01:00.800Z,0.88
2023-02-06T12:03:39.208Z,0.87
2023-02-06T12:06:13.108Z,0.84
2023-02-06T12:08:46.625Z,0.84
2023-02-06T12:11:22.168Z,1.00
2023-02-06T12:13:53.079Z,0.96
2023-02-06T12:16:22.877Z,1.00
2023-02-06T12:18:53.342Z,0.95
2023-02-06T12:21:25.436Z,0.90
2023-02-06T12:23:55.597Z,1.23
2023-02-06T12:26:27.306Z,1.13
2023-02-06T12:28:58.478Z,0.84
2023-02-06T12:31:31.840Z,0.75
2023-02-06T12:34:10.520Z,0.60
2023-02-06T12:36:44.102Z,0.46
2023-02-06T12:39:18.038Z,0.57
2023-02-06T12:42:00.941Z,0.44
2023-02-06T12:44:33.742Z,0.43
2023-02-06T12:47:07.445Z,0.46
2023-02-06T12:49:44.868Z,0.45
2023-02-06T12:52:17.902Z,0.47
2023-02-06T12:54:49.562Z,0.56
2023-02-06T12:57:22.459Z,0.54
2023-02-06T13:00:03.846Z,0.52
2023-02-06T13:03:02.477Z,0.71
2023-02-06T13:05:33.943Z,0.57
2023-02-06T13:08:07.136Z,0.56
2023-02-06T13:10:35.205Z,0.63
2023-02-06T13:13:03.885Z,0.66
2023-02-06T13:15:35.754Z,0.59
2023-02-06T13:18:02.919Z,0.50
2023-02-06T13:20:31.366Z,0.76
2023-02-06T13:23:22.865Z,0.62
2023-02-06T13:25:50.191Z,0.73
2023-02-06T13:28:56.870Z,0.60
2023-02-06T13:31:31.315Z,0.67
2023-02-06T13:34:01.693Z,0.56
2023-02-06T13:36:44.572Z,0.87
2023-02-06T13:39:23.176Z,0.70
2023-02-06T13:41:53.378Z,0.61
2023-02-06T13:44:26.530Z,1.00
2023-02-06T13:47:47.972Z,0.81
2023-02-06T13:50:33.839Z,0.79
2023-02-06T13:53:14.813Z,0.70
2023-02-06T13:56:00.381Z,0.59
2023-02-06T14:01:14.277Z,0.61
2023-02-06T14:03:45.824Z,0.51
2023-02-06T14:06:37.264Z,0.54
2023-02-06T14:09:16.605Z,0.48
2023-02-06T14:11:57.285Z,1.04
2023-02-06T14:14:38.745Z,1.21
2023-02-06T14:17:16.802Z,0.91
2023-02-06T14:19:52.363Z,0.83
2023-02-06T14:22:31.639Z,0.68
2023-02-06T14:25:11.853Z,0.69
2023-02-06T14:27:58.578Z,0.60
2023-02-06T14:30:36.286Z,0.60
2023-02-06T14:33:18.556Z,0.64
2023-02-06T14:36:06.345Z,0.58
2023-02-06T14:39:15.361Z,0.49
2023-02-06T14:41:42.225Z,0.40
2023-02-06T14:44:13.115Z,0.40
2023-02-06T14:46:43.037Z,0.53
2023-02-06T14:49:16.895Z,0.43
2023-02-06T14:51:49.469Z,0.41
2023-02-06T14:54:29.655Z,0.46
2023-02-06T14:56:57.316Z,0.48
2023-02-06T14:59:24.375Z,0.44
2023-02-06T15:01:54.344Z,0.52
2023-02-06T15:04:23.820Z,0.65
2023-02-06T15:06:54.184Z,0.67
2023-02-06T15:09:26.656Z,0.59
2023-02-06T15:11:55.191Z,0.48
2023-02-06T15:14:25.043Z,0.44
2023-02-06T15:16:52.504Z,0.42
2023-02-06T15:19:21.630Z,0.41
2023-02-06T15:21:49.368Z,0.41
2023-02-06T15:24:32.398Z,0.41
2023-02-06T15:27:07.933Z,0.45
2023-02-06T15:29:35.650Z,0.66
2023-02-06T15:32:05.764Z,0.70
2023-02-06T15:34:32.675Z,0.70
2023-02-06T15:36:59.600Z,0.62
2023-02-06T15:39:28.189Z,0.52
2023-02-06T15:41:55.387Z,0.43
2023-02-06T15:44:31.448Z,0.56
2023-02-06T15:47:00.558Z,0.69
2023-02-06T15:49:35.408Z,0.76
2023-02-06T15:52:03.140Z,0.87
2023-02-06T15:54:31.788Z,0.93
2023-02-06T15:57:02.844Z,0.73
2023-02-06T15:59:33.243Z,0.62
2023-02-06T16:02:01.238Z,0.56
2023-02-06T16:04:30.905Z,0.46
2023-02-06T16:07:05.664Z,0.47
2023-02-06T16:09:39.574Z,0.64
2023-02-06T16:12:07.005Z,0.57
2023-02-06T16:14:35.676Z,0.56
2023-02-06T16:17:06.088Z,0.74
2023-02-06T16:19:45.596Z,1.71
2023-02-06T16:22:23.948Z,1.86
2023-02-06T16:24:54.329Z,3.69
2023-02-06T16:27:23.646Z,4.80
2023-02-06T16:29:53.029Z,3.42
2023-02-06T16:32:24.530Z,2.95
2023-02-06T16:34:52.210Z,2.29
2023-02-06T16:37:21.312Z,2.24
2023-02-06T16:39:48.205Z,2.35
2023-02-06T16:42:18.888Z,2.00
2023-02-06T16:44:49.679Z,2.33
2023-02-06T16:47:19.633Z,2.20
2023-02-06T16:49:47.100Z,1.85
2023-02-06T16:52:20.276Z,1.55
2023-02-06T16:54:48.134Z,1.32
2023-02-06T16:57:25.053Z,1.68
2023-02-06T16:59:51.935Z,2.22
2023-02-06T17:02:18.728Z,2.08
2023-02-06T17:04:45.584Z,1.76
2023-02-06T17:07:14.070Z,1.81
2023-02-06T17:09:41.918Z,2.06
2023-02-06T17:12:12.851Z,2.18
2023-02-06T17:14:41.935Z,2.51
2023-02-06T17:17:11.303Z,2.38
2023-02-06T17:19:38.432Z,2.42
2023-02-06T17:22:05.491Z,2.68
2023-02-06T17:24:32.402Z,3.18
2023-02-06T17:26:59.194Z,2.12
2023-02-06T17:29:25.939Z,1.33
2023-02-06T17:31:54.094Z,1.35
2023-02-06T17:34:20.865Z,1.35
2023-02-06T17:36:47.596Z,0.86
2023-02-06T17:39:14.516Z,0.95
2023-02-06T17:41:41.296Z,1.06
2023-02-06T17:44:08.017Z,1.58
2023-02-06T17:46:34.850Z,1.92
2023-02-06T17:49:03.024Z,1.85
2023-02-06T17:51:29.783Z,1.74
2023-02-06T17:53:56.545Z,1.55
2023-02-06T17:56:23.299Z,1.13
2023-02-06T17:58:50.149Z,1.04
2023-02-06T18:01:19.381Z,0.98
2023-02-06T18:03:47.901Z,1.00
2023-02-06T18:06:16.587Z,1.03
2023-02-06T18:08:43.699Z,1.05
2023-02-06T18:11:11.458Z,1.21
2023-02-06T18:13:38.402Z,1.17
2023-02-06T18:16:06.023Z,1.03
2023-02-06T18:18:33.668Z,1.14
2023-02-06T18:21:00.733Z,1.30
2023-02-06T18:23:28.931Z,1.42
2023-02-06T18:26:01.464Z,1.17
2023-02-06T18:28:28.394Z,1.17
2023-02-06T18:30:55.214Z,1.33
2023-02-06T18:33:22.010Z,1.19
2023-02-06T18:35:48.819Z,0.82
2023-02-06T18:38:16.113Z,0.67
2023-02-06T18:40:44.691Z,0.95
2023-02-06T18:43:12.490Z,1.27
2023-02-06T18:45:40.172Z,1.62
2023-02-06T18:48:09.256Z,1.44
2023-02-06T18:50:39.848Z,1.33
2023-02-06T18:53:06.897Z,1.14
2023-02-06T18:55:34.396Z,0.96
2023-02-06T18:58:02.734Z,1.31
2023-02-06T19:00:29.562Z,1.18
2023-02-06T19:02:58.126Z,1.42
2023-02-06T19:05:25.000Z,1.31
2023-02-06T19:07:53.112Z,1.92
2023-02-06T19:10:20.978Z,1.51
2023-02-06T19:12:47.864Z,1.16
2023-02-06T19:15:16.457Z,0.95
2023-02-06T19:17:43.291Z,0.84
2023-02-06T19:20:11.610Z,0.63
2023-02-06T19:22:39.068Z,0.53
2023-02-06T19:25:10.631Z,0.42
2023-02-06T19:27:38.332Z,0.43
2023-02-06T19:30:06.225Z,0.44
2023-02-06T19:32:34.911Z,0.43
2023-02-06T19:35:02.037Z,0.57
2023-02-06T19:37:28.872Z,0.45
2023-02-06T19:39:55.610Z,0.42
2023-02-06T19:42:22.506Z,0.70
2023-02-06T19:44:51.970Z,0.64
2023-02-06T19:47:18.808Z,0.60
2023-02-06T19:49:49.542Z,0.82
2023-02-06T19:52:16.271Z,0.84
2023-02-06T19:54:42.990Z,0.77
2023-02-06T19:57:09.750Z,0.81
2023-02-06T19:59:36.474Z,0.94
2023-02-06T20:02:03.317Z,0.91
2023-02-06T20:04:32.302Z,0.77
2023-02-06T20:07:01.230Z,0.82
2023-02-06T20:09:29.181Z,0.72
2023-02-06T20:11:56.954Z,0.94
2023-02-06T20:14:24.379Z,0.93
2023-02-06T20:16:52.601Z,0.82
2023-02-06T20:19:22.249Z,1.02
2023-02-06T20:21:51.977Z,0.91
2023-02-06T20:24:21.885Z,0.86
2023-02-06T20:26:50.532Z,0.85
2023-02-06T20:29:20.436Z,1.06
2023-02-06T20:31:47.918Z,1.70
2023-02-06T20:34:14.910Z,1.33
2023-02-06T20:36:42.104Z,1.17
2023-02-06T20:39:11.335Z,1.44
2023-02-06T20:41:40.219Z,1.25
2023-02-06T20:44:08.174Z,1.27
2023-02-06T20:46:36.626Z,1.00
2023-02-06T20:49:05.974Z,0.94
2023-02-06T20:51:32.779Z,0.80
2023-02-06T20:53:59.519Z,0.78
2023-02-06T20:56:27.145Z,0.74
2023-02-06T20:58:55.423Z,0.72
2023-02-06T21:01:23.904Z,0.76
2023-02-06T21:03:55.500Z,1.10
2023-02-06T21:06:22.702Z,0.91
2023-02-06T21:08:50.307Z,1.15
2023-02-06T21:11:18.617Z,1.51
2023-02-06T21:13:45.383Z,1.37
2023-02-06T21:16:13.752Z,1.46
2023-02-06T21:18:40.678Z,1.21
2023-02-06T21:21:09.816Z,1.01
2023-02-06T21:23:37.130Z,0.95
2023-02-06T21:26:05.666Z,0.74
2023-02-06T21:28:34.280Z,0.67
2023-02-06T21:31:03.586Z,0.86
2023-02-06T21:33:32.068Z,1.20
2023-02-06T21:36:00.832Z,1.39
2023-02-06T21:38:27.738Z,1.34
2023-02-06T21:40:54.578Z,1.19
2023-02-06T21:43:21.336Z,1.37
2023-02-06T21:45:48.382Z,1.18
2023-02-06T21:48:15.253Z,0.82
2023-02-06T21:50:43.544Z,1.22
2023-02-06T21:53:10.612Z,0.97
2023-02-06T21:55:41.911Z,1.11
2023-02-06T21:58:09.173Z,0.76
2023-02-06T22:00:36.429Z,0.63
2023-02-06T22:03:03.791Z,0.70
2023-02-06T22:05:30.600Z,0.63
2023-02-06T22:07:58.758Z,0.55
2023-02-06T22:10:25.732Z,0.48
2023-02-06T22:12:52.967Z,0.44
2023-02-06T22:15:20.072Z,0.62
2023-02-06T22:17:46.986Z,0.57
2023-02-06T22:20:16.418Z,0.52
2023-02-06T22:22:43.303Z,0.47
2023-02-06T22:25:11.575Z,0.69
2023-02-06T22:27:38.540Z,0.55
2023-02-06T22:30:06.222Z,0.56
2023-02-06T22:32:36.125Z,0.52
2023-02-06T22:35:04.152Z,0.52
2023-02-06T22:37:31.444Z,0.50
2023-02-06T22:39:58.193Z,0.45
2023-02-06T22:42:29.023Z,0.38
2023-02-06T22:44:55.882Z,0.48
2023-02-06T22:47:22.719Z,0.49
2023-02-06T22:49:50.840Z,0.40
2023-02-06T22:52:17.684Z,0.31
2023-02-06T22:54:44.497Z,0.30
2023-02-06T22:57:11.373Z,0.31
2023-02-06T22:59:39.767Z,0.31
2023-02-06T23:02:06.509Z,0.30
2023-02-06T23:04:33.476Z,0.30
2023-02-06T23:07:00.368Z,0.34
2023-02-06T23:09:29.642Z,0.29
2023-02-06T23:11:57.409Z,0.28
2023-02-06T23:14:24.768Z,0.29
2023-02-06T23:16:52.963Z,0.30
2023-02-06T23:19:20.287Z,0.55
2023-02-06T23:21:49.434Z,0.83
2023-02-06T23:24:17.010Z,0.63
2023-02-06T23:26:46.351Z,0.59
2023-02-06T23:29:15.052Z,0.51
2023-02-06T23:31:42.233Z,0.49
2023-02-06T23:34:10.423Z,0.60
2023-02-06T23:36:37.767Z,0.65
2023-02-06T23:39:05.178Z,0.54
2023-02-06T23:41:33.478Z,1.28
2023-02-06T23:44:02.138Z,1.08
2023-02-06T23:46:31.208Z,0.80
2023-02-06T23:48:58.445Z,0.62
2023-02-06T23:51:28.403Z,0.72
2023-02-06T23:53:55.188Z,0.77
2023-02-06T23:56:24.085Z,0.64
2023-02-06T23:58:52.489Z,0.52
